createdAt,value
2022-09-09T00:01:32.673Z,100.00
2022-09-09T00:04:07.591Z,100.00
2022-09-09T00:06:46.344Z,100.00
2022-09-09T00:09:19.322Z,100.00
2022-09-09T00:11:53.821Z,100.00
2022-09-09T00:14:31.625Z,100.00
2022-09-09T00:17:05.140Z,100.00
2022-09-09T00:19:41.255Z,100.00
2022-09-09T00:22:18.379Z,100.00
2022-09-09T00:24:51.627Z,100.00
2022-09-09T00:27:30.257Z,100.00
2022-09-09T00:30:03.549Z,100.00
2022-09-09T00:32:36.909Z,100.00
2022-09-09T00:35:19.187Z,100.00
2022-09-09T00:37:51.152Z,100.00
2022-09-09T00:40:34.857Z,100.00
2022-09-09T00:43:22.115Z,100.00
2022-09-09T00:46:30.455Z,100.00
2022-09-09T00:49:06.440Z,100.00
2022-09-09T00:51:47.412Z,100.00
2022-09-09T00:54:40.339Z,100.00
2022-09-09T00:57:28.860Z,100.00
2022-09-09T01:00:18.321Z,100.00
2022-09-09T01:02:59.380Z,100.00
2022-09-09T01:05:38.080Z,100.00
2022-09-09T01:08:17.956Z,100.00
2022-09-09T01:10:54.292Z,100.00
2022-09-09T01:13:27.193Z,100.00
2022-09-09T01:15:59.826Z,100.00
2022-09-09T01:18:35.816Z,100.00
2022-09-09T01:21:11.344Z,100.00
2022-09-09T01:24:03.724Z,100.00
2022-09-09T01:26:36.370Z,100.00
2022-09-09T01:29:05.414Z,100.00
2022-09-09T01:31:38.050Z,100.00
2022-09-09T01:34:12.792Z,100.00
2022-09-09T01:36:48.188Z,100.00
2022-09-09T01:39:16.710Z,100.00
2022-09-09T01:41:46.320Z,100.00
2022-09-09T01:44:15.031Z,100.00
2022-09-09T01:46:43.463Z,100.00
2022-09-09T01:49:12.263Z,100.00
2022-09-09T01:51:43.893Z,100.00
2022-09-09T01:54:12.975Z,100.00
2022-09-09T01:56:53.465Z,100.00
2022-09-09T01:59:34.288Z,100.00
2022-09-09T02:02:12.291Z,100.00
2022-09-09T02:04:43.535Z,100.00
2022-09-09T02:07:24.810Z,100.00
2022-09-09T02:10:01.505Z,100.00
2022-09-09T02:12:32.721Z,100.00
2022-09-09T02:15:07.559Z,100.00
2022-09-09T02:17:40.627Z,100.00
2022-09-09T02:20:12.590Z,100.00
2022-09-09T02:22:45.132Z,100.00
2022-09-09T02:25:18.208Z,100.00
2022-09-09T02:27:50.092Z,100.00
2022-09-09T02:30:18.638Z,100.00
2022-09-09T02:32:49.102Z,100.00
2022-09-09T02:35:21.299Z,100.00
2022-09-09T02:37:51.625Z,100.00
2022-09-09T02:40:20.212Z,100.00
2022-09-09T02:42:51.284Z,100.00
2022-09-09T02:45:22.114Z,100.00
2022-09-09T02:47:56.178Z,100.00
2022-09-09T02:50:32.181Z,100.00
2022-09-09T02:53:12.416Z,100.00
2022-09-09T02:55:44.471Z,100.00
2022-09-09T02:58:18.085Z,100.00
2022-09-09T03:00:48.082Z,100.00
2022-09-09T03:03:18.459Z,100.00
2022-09-09T03:05:47.407Z,100.00
2022-09-09T03:08:16.338Z,100.00
2022-09-09T03:10:44.901Z,100.00
2022-09-09T03:13:16.380Z,100.00
2022-09-09T03:15:44.709Z,100.00
2022-09-09T03:18:13.047Z,100.00
2022-09-09T03:20:44.176Z,100.00
2022-09-09T03:23:15.889Z,100.00
2022-09-09T03:25:49.363Z,100.00
2022-09-09T03:28:19.143Z,100.00
2022-09-09T03:30:47.367Z,100.00
2022-09-09T03:33:16.140Z,100.00
2022-09-09T03:35:49.926Z,100.00
2022-09-09T03:38:18.199Z,100.00
2022-09-09T03:40:52.367Z,100.00
2022-09-09T03:43:22.344Z,100.00
2022-09-09T03:45:50.858Z,100.00
2022-09-09T03:48:20.061Z,100.00
2022-09-09T03:50:48.388Z,100.00
2022-09-09T03:53:17.740Z,100.00
2022-09-09T03:55:47.132Z,100.00
2022-09-09T03:58:15.912Z,100.00
2022-09-09T04:00:46.295Z,100.00
2022-09-09T04:03:14.653Z,100.00
2022-09-09T04:05:43.501Z,100.00
2022-09-09T04:08:12.603Z,100.00
2022-09-09T04:10:40.941Z,100.00
2022-09-09T04:13:09.221Z,100.00
2022-09-09T04:15:37.742Z,100.00
2022-09-09T04:18:07.562Z,100.00
2022-09-09T04:20:36.503Z,100.00
2022-09-09T04:23:04.805Z,100.00
2022-09-09T04:25:33.438Z,100.00
2022-09-09T04:28:01.743Z,100.00
2022-09-09T04:30:30.004Z,100.00
2022-09-09T04:32:59.693Z,100.00
2022-09-09T04:35:29.388Z,100.00
2022-09-09T04:37:57.704Z,100.00
2022-09-09T04:40:25.972Z,100.00
2022-09-09T04:42:54.374Z,100.00
2022-09-09T04:45:22.637Z,100.00
2022-09-09T04:47:51.241Z,100.00
2022-09-09T04:50:19.791Z,100.00
2022-09-09T04:52:49.692Z,100.00
2022-09-09T04:55:18.216Z,100.00
2022-09-09T04:57:46.574Z,100.00
2022-09-09T05:00:16.127Z,100.00
2022-09-09T05:02:44.397Z,100.00
2022-09-09T05:05:13.243Z,100.00
2022-09-09T05:07:41.585Z,100.00
2022-09-09T05:10:11.825Z,100.00
2022-09-09T05:12:40.176Z,100.00
2022-09-09T05:15:09.384Z,100.00
2022-09-09T05:17:37.727Z,100.00
2022-09-09T05:20:09.893Z,100.00
2022-09-09T05:22:39.538Z,100.00
2022-09-09T05:25:08.892Z,100.00
2022-09-09T05:27:38.747Z,100.00
2022-09-09T05:30:07.814Z,100.00
2022-09-09T05:32:36.055Z,100.00
2022-09-09T05:35:05.221Z,100.00
2022-09-09T05:37:33.752Z,100.00
2022-09-09T05:40:02.251Z,100.00
2022-09-09T05:42:33.596Z,100.00
2022-09-09T05:45:03.530Z,100.00
2022-09-09T05:47:31.803Z,100.00
2022-09-09T05:50:00.056Z,100.00
2022-09-09T05:52:28.432Z,100.00
2022-09-09T05:54:58.138Z,100.00
2022-09-09T05:57:26.407Z,100.00
2022-09-09T05:59:54.827Z,100.00
2022-09-09T06:02:24.583Z,100.00
2022-09-09T06:04:52.928Z,100.00
2022-09-09T06:07:21.285Z,100.00
2022-09-09T06:09:49.621Z,100.00
2022-09-09T06:12:17.860Z,100.00
2022-09-09T06:14:46.806Z,100.00
2022-09-09T06:17:15.099Z,100.00
2022-09-09T06:19:44.885Z,100.00
2022-09-09T06:22:13.720Z,100.00
2022-09-09T06:24:41.998Z,100.00
2022-09-09T06:27:10.267Z,100.00
2022-09-09T06:29:38.667Z,100.00
2022-09-09T06:32:09.622Z,100.00
2022-09-09T06:34:37.881Z,100.00
2022-09-09T06:37:07.704Z,100.00
2022-09-09T06:39:36.301Z,100.00
2022-09-09T06:42:05.149Z,100.00
2022-09-09T06:44:35.608Z,100.00
2022-09-09T06:47:04.447Z,100.00
2022-09-09T06:49:32.741Z,93.23
2022-09-09T06:52:01.059Z,95.43
2022-09-09T06:54:30.714Z,97.06
2022-09-09T06:57:00.759Z,100.00
2022-09-09T06:59:33.180Z,98.24
2022-09-09T07:02:02.399Z,90.00
2022-09-09T07:04:30.693Z,92.27
2022-09-09T07:07:00.012Z,87.13
2022-09-09T07:09:28.528Z,79.55
2022-09-09T07:11:59.396Z,82.48
2022-09-09T07:14:28.183Z,84.01
2022-09-09T07:16:59.672Z,86.57
2022-09-09T07:19:28.488Z,79.58
2022-09-09T07:21:56.702Z,70.67
2022-09-09T07:24:24.925Z,69.74
2022-09-09T07:26:53.289Z,66.05
2022-09-09T07:29:23.051Z,66.75
2022-09-09T07:31:51.365Z,65.47
2022-09-09T07:34:20.190Z,62.59
2022-09-09T07:36:48.463Z,65.60
2022-09-09T07:39:18.529Z,70.84
2022-09-09T07:41:48.797Z,62.88
2022-09-09T07:44:19.363Z,61.65
2022-09-09T07:46:49.068Z,64.69
2022-09-09T07:49:22.766Z,63.15
2022-09-09T07:51:54.759Z,64.73
2022-09-09T07:54:24.866Z,57.84
2022-09-09T07:56:54.485Z,59.72
2022-09-09T07:59:22.835Z,53.76
2022-09-09T08:01:55.581Z,55.38
2022-09-09T08:04:26.342Z,51.91
2022-09-09T08:06:56.711Z,53.61
2022-09-09T08:09:28.181Z,49.22
2022-09-09T08:11:57.465Z,50.39
2022-09-09T08:14:25.898Z,47.38
2022-09-09T08:16:55.956Z,46.33
2022-09-09T08:19:24.615Z,44.04
2022-09-09T08:21:52.924Z,42.32
2022-09-09T08:24:21.323Z,44.05
2022-09-09T08:26:50.808Z,44.26
2022-09-09T08:29:19.756Z,45.37
2022-09-09T08:31:49.889Z,44.54
2022-09-09T08:34:21.647Z,45.26
2022-09-09T08:36:51.580Z,43.70
2022-09-09T08:39:21.319Z,43.27
2022-09-09T08:42:12.882Z,42.61
2022-09-09T08:44:58.442Z,44.45
2022-09-09T08:47:37.326Z,45.54
2022-09-09T08:50:20.946Z,47.37
2022-09-09T08:52:56.526Z,42.78
2022-09-09T08:55:30.299Z,40.38
2022-09-09T08:58:02.061Z,42.33
2022-09-09T09:00:39.701Z,41.75
2022-09-09T09:03:18.642Z,40.31
2022-09-09T09:05:53.634Z,40.06
2022-09-09T09:08:29.734Z,40.82
2022-09-09T09:11:01.557Z,40.22
2022-09-09T09:13:41.683Z,39.23
2022-09-09T09:16:22.219Z,39.73
2022-09-09T09:18:52.183Z,40.26
2022-09-09T09:21:29.260Z,43.19
2022-09-09T09:24:00.614Z,45.15
2022-09-09T09:26:35.001Z,44.56
2022-09-09T09:29:10.883Z,42.44
2022-09-09T09:31:39.234Z,41.00
2022-09-09T09:34:07.926Z,39.40
2022-09-09T09:36:42.665Z,40.05
2022-09-09T09:42:05.150Z,49.05
2022-09-09T09:44:38.343Z,49.51
2022-09-09T09:47:11.943Z,50.73
2022-09-09T09:49:40.462Z,49.53
2022-09-09T09:52:23.591Z,50.79
2022-09-09T09:54:53.347Z,53.29
2022-09-09T09:57:28.249Z,53.93
2022-09-09T10:00:08.073Z,52.75
2022-09-09T10:02:41.845Z,51.17
2022-09-09T10:05:17.930Z,50.60
2022-09-09T10:07:49.077Z,49.83
2022-09-09T10:10:23.212Z,51.36
2022-09-09T10:13:03.211Z,53.67
2022-09-09T10:15:44.394Z,54.16
2022-09-09T10:18:28.837Z,52.35
2022-09-09T10:21:06.391Z,50.39
2022-09-09T10:24:11.156Z,51.89
2022-09-09T10:26:48.493Z,50.75
2022-09-09T10:29:35.382Z,53.16
2022-09-09T10:32:15.648Z,48.39
2022-09-09T10:34:58.077Z,43.85
2022-09-09T10:37:39.389Z,43.10
2022-09-09T10:40:25.796Z,44.67
2022-09-09T10:42:59.477Z,44.43
2022-09-09T10:45:35.880Z,43.18
2022-09-09T10:48:28.956Z,41.97
2022-09-09T10:51:05.432Z,40.99
2022-09-09T10:53:49.425Z,39.01
2022-09-09T10:56:22.816Z,40.36
2022-09-09T10:58:54.951Z,37.93
2022-09-09T11:01:26.317Z,36.04
2022-09-09T11:03:59.434Z,36.90
2022-09-09T11:06:34.936Z,39.01
2022-09-09T11:09:06.291Z,37.72
2022-09-09T11:11:42.092Z,37.03
2022-09-09T11:14:17.773Z,35.39
2022-09-09T11:16:53.273Z,37.97
2022-09-09T11:19:29.081Z,38.30
2022-09-09T11:21:59.500Z,36.21
2022-09-09T11:24:33.879Z,36.85
2022-09-09T11:27:10.522Z,35.62
2022-09-09T11:30:08.453Z,35.30
2022-09-09T11:33:11.196Z,34.10
2022-09-09T11:35:57.103Z,34.12
2022-09-09T11:38:29.019Z,33.67
2022-09-09T11:41:01.662Z,34.00
2022-09-09T11:43:36.249Z,33.60
2022-09-09T11:46:05.482Z,33.32
2022-09-09T11:48:38.893Z,32.82
2022-09-09T11:51:14.567Z,33.45
2022-09-09T11:53:53.729Z,33.23
2022-09-09T11:56:30.999Z,33.04
2022-09-09T11:59:04.845Z,32.07
2022-09-09T12:01:38.349Z,31.77
2022-09-09T12:04:35.632Z,31.96
2022-09-09T12:07:06.981Z,33.55
2022-09-09T12:09:48.932Z,32.77
2022-09-09T12:12:34.611Z,33.71
2022-09-09T12:15:27.309Z,34.17
2022-09-09T12:18:02.131Z,37.60
2022-09-09T12:20:37.014Z,37.27
2022-09-09T12:23:24.967Z,36.44
2022-09-09T12:26:03.458Z,35.18
2022-09-09T12:28:46.184Z,33.95
2022-09-09T12:31:23.259Z,33.98
2022-09-09T12:33:53.752Z,33.60
2022-09-09T12:36:26.655Z,33.93
2022-09-09T12:38:56.287Z,32.28
2022-09-09T12:41:26.807Z,33.64
2022-09-09T12:44:06.963Z,33.99
2022-09-09T12:46:41.913Z,34.63
2022-09-09T12:49:30.016Z,34.78
2022-09-09T12:51:59.732Z,37.63
2022-09-09T12:54:29.218Z,36.93
2022-09-09T12:56:57.511Z,35.31
2022-09-09T12:59:28.431Z,35.99
2022-09-09T13:02:01.639Z,37.31
2022-09-09T13:04:30.160Z,37.82
2022-09-09T13:07:11.157Z,40.56
2022-09-09T13:09:45.501Z,41.25
2022-09-09T13:12:17.225Z,42.50
2022-09-09T13:14:49.584Z,41.43
2022-09-09T13:17:22.829Z,40.76
2022-09-09T13:19:53.975Z,36.41
2022-09-09T13:22:34.027Z,36.11
2022-09-09T13:25:05.834Z,37.23
2022-09-09T13:27:36.152Z,37.55
2022-09-09T13:30:19.804Z,38.67
2022-09-09T13:32:49.456Z,40.39
2022-09-09T13:35:26.176Z,38.87
2022-09-09T13:37:54.561Z,39.02
2022-09-09T13:40:24.509Z,38.00
2022-09-09T13:42:57.595Z,37.27
2022-09-09T13:45:28.502Z,37.91
2022-09-09T13:47:58.597Z,38.88
2022-09-09T13:50:29.071Z,41.76
2022-09-09T13:52:59.446Z,43.21
2022-09-09T13:55:29.861Z,45.55
2022-09-09T13:58:00.027Z,46.26
2022-09-09T14:00:28.876Z,49.61
2022-09-09T14:02:58.700Z,49.64
2022-09-09T14:05:27.237Z,51.94
2022-09-09T14:07:55.638Z,54.70
2022-09-09T14:10:23.903Z,52.55
2022-09-09T14:12:52.293Z,54.34
2022-09-09T14:15:21.172Z,55.06
2022-09-09T14:17:49.743Z,52.58
2022-09-09T14:20:20.348Z,53.41
2022-09-09T14:22:48.697Z,52.07
2022-09-09T14:25:17.133Z,52.48
2022-09-09T14:27:47.009Z,54.69
2022-09-09T14:30:15.536Z,51.10
2022-09-09T14:32:43.803Z,52.09
2022-09-09T14:35:12.763Z,49.86
2022-09-09T14:37:42.466Z,51.52
2022-09-09T14:40:12.486Z,47.89
2022-09-09T14:42:41.497Z,45.64
2022-09-09T14:45:10.768Z,46.39
2022-09-09T14:47:39.196Z,44.78
2022-09-09T14:50:09.090Z,46.61
2022-09-09T14:52:37.916Z,47.62
2022-09-09T14:55:09.122Z,44.08
2022-09-09T14:57:37.691Z,46.14
2022-09-09T15:00:07.318Z,43.89
2022-09-09T15:02:36.115Z,43.76
2022-09-09T15:05:05.501Z,43.92
2022-09-09T15:07:35.221Z,43.40
2022-09-09T15:10:03.897Z,44.07
2022-09-09T15:12:34.342Z,44.16
2022-09-09T15:15:03.186Z,44.88
2022-09-09T15:17:31.458Z,46.06
2022-09-09T15:19:59.729Z,47.87
2022-09-09T15:22:28.032Z,47.99
2022-09-09T15:24:56.349Z,49.10
2022-09-09T15:27:25.176Z,50.52
2022-09-09T15:29:54.919Z,51.59
2022-09-09T15:32:23.175Z,52.29
2022-09-09T15:34:52.516Z,52.54
2022-09-09T15:37:20.879Z,55.09
2022-09-09T15:39:49.202Z,54.88
2022-09-09T15:42:17.540Z,53.27
2022-09-09T15:44:45.859Z,57.49
2022-09-09T15:47:16.366Z,60.83
2022-09-09T15:49:44.714Z,59.81
2022-09-09T15:52:13.379Z,58.76
2022-09-09T15:54:41.691Z,57.74
2022-09-09T15:57:13.443Z,61.10
2022-09-09T15:59:41.755Z,59.86
2022-09-09T16:02:12.009Z,59.92
2022-09-09T16:04:41.879Z,59.47
2022-09-09T16:07:10.072Z,65.78
2022-09-09T16:09:38.960Z,65.44
2022-09-09T16:12:10.744Z,69.20
2022-09-09T16:14:39.931Z,64.98
2022-09-09T16:17:12.236Z,69.33
2022-09-09T16:19:41.976Z,73.24
2022-09-09T16:22:10.541Z,75.13
2022-09-09T16:24:39.460Z,75.57
2022-09-09T16:27:07.853Z,76.57
2022-09-09T16:29:36.141Z,77.09
2022-09-09T16:32:04.869Z,78.68
2022-09-09T16:34:34.760Z,74.15
2022-09-09T16:37:04.634Z,80.97
2022-09-09T16:39:32.966Z,77.90
2022-09-09T16:42:01.267Z,79.13
2022-09-09T16:44:29.580Z,81.68
2022-09-09T16:47:00.762Z,81.96
2022-09-09T16:49:29.902Z,83.39
2022-09-09T16:52:00.420Z,84.96
2022-09-09T16:54:30.357Z,86.72
2022-09-09T16:56:59.220Z,86.71
2022-09-09T16:59:27.812Z,89.58
2022-09-09T17:01:56.118Z,90.83
2022-09-09T17:04:29.056Z,91.74
2022-09-09T17:06:58.532Z,92.81
2022-09-09T17:09:30.459Z,94.25
2022-09-09T17:11:59.947Z,95.39
2022-09-09T17:14:28.208Z,95.08
2022-09-09T17:17:05.245Z,96.99
2022-09-09T17:19:42.196Z,98.27
2022-09-09T17:22:17.296Z,98.69
2022-09-09T17:24:47.743Z,100.00
2022-09-09T17:27:16.017Z,100.00
2022-09-09T17:29:44.286Z,100.00
2022-09-09T17:32:12.649Z,100.00
2022-09-09T17:34:40.955Z,100.00
2022-09-09T17:37:09.282Z,100.00
2022-09-09T17:39:37.820Z,100.00
2022-09-09T17:42:08.531Z,100.00
2022-09-09T17:44:36.831Z,100.00
2022-09-09T17:47:07.191Z,100.00
2022-09-09T17:49:35.864Z,100.00
2022-09-09T17:52:04.765Z,100.00
2022-09-09T17:54:34.035Z,100.00
2022-09-09T17:57:02.453Z,100.00
2022-09-09T17:59:32.322Z,100.00
2022-09-09T18:02:00.789Z,100.00
2022-09-09T18:04:29.259Z,100.00
2022-09-09T18:06:58.392Z,100.00
2022-09-09T18:09:28.088Z,100.00
2022-09-09T18:11:59.369Z,100.00
2022-09-09T18:14:30.262Z,100.00
2022-09-09T18:17:00.743Z,100.00
2022-09-09T18:19:30.856Z,100.00
2022-09-09T18:22:01.922Z,100.00
2022-09-09T18:24:32.018Z,100.00
2022-09-09T18:27:01.013Z,100.00
2022-09-09T18:29:29.993Z,100.00
2022-09-09T18:32:00.977Z,100.00
2022-09-09T18:34:30.318Z,100.00
2022-09-09T18:36:59.473Z,100.00
2022-09-09T18:39:29.965Z,100.00
2022-09-09T18:42:00.698Z,100.00
2022-09-09T18:44:31.487Z,100.00
2022-09-09T18:47:01.399Z,100.00
2022-09-09T18:49:29.982Z,100.00
2022-09-09T18:51:59.344Z,100.00
2022-09-09T18:54:30.511Z,100.00
2022-09-09T18:57:00.662Z,100.00
2022-09-09T18:59:29.432Z,100.00
2022-09-09T19:01:58.253Z,100.00
2022-09-09T19:04:28.199Z,100.00
2022-09-09T19:06:59.066Z,100.00
2022-09-09T19:09:29.875Z,100.00
2022-09-09T19:11:58.719Z,100.00
2022-09-09T19:14:27.507Z,100.00
2022-09-09T19:16:56.488Z,100.00
2022-09-09T19:19:29.025Z,100.00
2022-09-09T19:21:58.259Z,100.00
2022-09-09T19:24:28.906Z,100.00
2022-09-09T19:27:01.803Z,100.00
2022-09-09T19:29:33.144Z,100.00
2022-09-09T19:32:49.228Z,100.00
2022-09-09T19:34:52.887Z,100.00
2022-09-09T19:37:22.584Z,100.00
2022-09-09T19:39:51.554Z,100.00
2022-09-09T19:42:20.437Z,100.00
2022-09-09T19:44:49.524Z,100.00
2022-09-09T19:47:18.303Z,100.00
2022-09-09T19:49:47.563Z,100.00
2022-09-09T19:52:17.824Z,100.00
2022-09-09T19:54:46.800Z,100.00
2022-09-09T19:57:15.641Z,100.00
2022-09-09T19:59:44.138Z,100.00
2022-09-09T20:02:15.554Z,100.00
2022-09-09T20:04:44.819Z,100.00
2022-09-09T20:07:13.435Z,100.00
2022-09-09T20:09:43.248Z,100.00
2022-09-09T20:12:11.490Z,100.00
2022-09-09T20:14:40.242Z,100.00
2022-09-09T20:17:09.117Z,100.00
2022-09-09T20:19:38.798Z,100.00
2022-09-09T20:22:07.113Z,100.00
2022-09-09T20:24:37.137Z,100.00
2022-09-09T20:27:08.325Z,100.00
2022-09-09T20:29:37.708Z,100.00
2022-09-09T20:32:06.969Z,100.00
2022-09-09T20:34:35.191Z,100.00
2022-09-09T20:37:04.811Z,100.00
2022-09-09T20:39:33.226Z,100.00
2022-09-09T20:42:03.085Z,100.00
2022-09-09T20:44:32.813Z,100.00
2022-09-09T20:47:06.349Z,100.00
2022-09-09T20:49:36.367Z,100.00
2022-09-09T20:52:06.064Z,100.00
2022-09-09T20:54:36.065Z,100.00
2022-09-09T20:57:04.443Z,100.00
2022-09-09T20:59:34.841Z,100.00
2022-09-09T21:02:03.454Z,100.00
2022-09-09T21:04:32.030Z,100.00
2022-09-09T21:07:00.564Z,100.00
2022-09-09T21:09:28.802Z,100.00
2022-09-09T21:11:57.096Z,100.00
2022-09-09T21:14:25.377Z,100.00
2022-09-09T21:16:55.705Z,100.00
2022-09-09T21:19:24.372Z,100.00
2022-09-09T21:21:52.653Z,100.00
2022-09-09T21:24:20.964Z,100.00
2022-09-09T21:26:49.542Z,100.00
2022-09-09T21:29:17.788Z,100.00
2022-09-09T21:31:46.033Z,100.00
2022-09-09T21:34:15.752Z,100.00
2022-09-09T21:36:44.018Z,100.00
2022-09-09T21:39:12.352Z,100.00
2022-09-09T21:41:40.637Z,100.00
2022-09-09T21:44:14.378Z,100.00
2022-09-09T21:46:43.429Z,100.00
2022-09-09T21:49:11.860Z,100.00
2022-09-09T21:51:41.599Z,100.00
2022-09-09T21:54:09.907Z,100.00
2022-09-09T21:56:38.243Z,100.00
2022-09-09T21:59:06.530Z,100.00
2022-09-09T22:01:34.911Z,100.00
2022-09-09T22:04:03.805Z,100.00
2022-09-09T22:06:32.071Z,100.00
2022-09-09T22:09:03.818Z,100.00
2022-09-09T22:11:32.180Z,100.00
2022-09-09T22:14:00.525Z,100.00
2022-09-09T22:16:28.774Z,100.00
2022-09-09T22:18:59.161Z,100.00
2022-09-09T22:21:29.727Z,100.00
2022-09-09T22:24:00.309Z,100.00
2022-09-09T22:26:32.915Z,100.00
2022-09-09T22:29:01.558Z,100.00
2022-09-09T22:31:30.075Z,100.00
2022-09-09T22:33:58.920Z,100.00
2022-09-09T22:36:27.757Z,100.00
2022-09-09T22:38:56.932Z,100.00
2022-09-09T22:41:26.271Z,100.00
2022-09-09T22:43:56.150Z,100.00
2022-09-09T22:46:24.425Z,100.00
2022-09-09T22:48:52.737Z,100.00
2022-09-09T22:51:21.200Z,100.00
2022-09-09T22:53:49.532Z,100.00
2022-09-09T22:56:20.501Z,100.00
2022-09-09T22:58:55.820Z,100.00
2022-09-09T23:01:27.009Z,100.00
2022-09-09T23:03:59.242Z,100.00
2022-09-09T23:06:29.068Z,100.00
2022-09-09T23:08:59.908Z,100.00
2022-09-09T23:11:31.157Z,100.00
2022-09-09T23:14:01.393Z,100.00
2022-09-09T23:16:33.962Z,100.00
2022-09-09T23:19:02.890Z,100.00
2022-09-09T23:21:32.409Z,100.00
2022-09-09T23:24:01.342Z,100.00
2022-09-09T23:26:30.083Z,100.00
2022-09-09T23:29:00.013Z,100.00
2022-09-09T23:31:33.003Z,100.00
2022-09-09T23:34:02.401Z,100.00
2022-09-09T23:36:31.647Z,100.00
2022-09-09T23:39:02.170Z,100.00
2022-09-09T23:41:31.126Z,100.00
2022-09-09T23:43:59.504Z,100.00
2022-09-09T23:46:29.337Z,100.00
2022-09-09T23:48:59.736Z,100.00
2022-09-09T23:51:30.709Z,100.00
2022-09-09T23:54:01.974Z,100.00
2022-09-09T23:56:32.541Z,100.00
2022-09-09T23:59:01.039Z,100.00
